CST,Max TemperatureF,Mean TemperatureF,Min TemperatureF,Max Dew PointF,MeanDew PointF,Min DewpointF,Max Humidity, Mean Humidity, Min Humidity, Max Sea Level PressureIn, Mean Sea Level PressureIn, Min Sea Level PressureIn, Max VisibilityMiles, Mean VisibilityMiles, Min VisibilityMiles, Max Wind SpeedMPH, Mean Wind SpeedMPH, Max Gust SpeedMPH,PrecipitationIn, CloudCover, Events, WindDirDegrees
2014-1-1,49,39,28,37,29,24,85,67,49,30.29,30.14,29.96,10,10,8,13,4,17,0.02,2,Rain,189
2014-1-2,41,29,17,38,20,10,92,75,57,30.47,30.15,29.93,10,7,1,24,14,35,0.02,7,Snow,331
2014-1-3,28,19,10,14,11,8,92,73,53,30.57,30.42,30.22,10,10,8,16,6,21,0.00,1,,154
2014-1-4,44,35,25,32,18,12,60,49,37,30.21,30.09,29.96,10,10,10,21,10,28,0.00,4,,180
2014-1-5,46,28,10,42,29,-1,96,79,61,30.27,29.82,29.64,10,5,1,26,14,38,0.83,8,Rain-Snow,305
2014-1-6,10,6,2,-2,-7,-12,69,60,51,30.58,30.49,30.32,10,10,7,23,12,32,T,3,Snow,300
2014-1-7,23,13,3,9,2,-9,72,62,51,30.58,30.48,30.37,10,10,10,16,8,24,0.00,0,,211
2014-1-8,38,30,22,28,20,10,92,68,44,30.48,30.43,30.39,10,8,2,10,6,16,0.02,5,Snow,186
2014-1-9,36,34,31,33,30,26,92,81,70,30.45,30.33,30.21,10,9,4,16,4,21,0.07,8,Rain,142
2014-1-10,51,44,36,49,43,32,93,86,79,30.19,29.91,29.63,10,7,2,20,9,27,0.95,8,Rain,168
2014-1-11,52,45,37,50,40,33,96,81,66,29.96,29.75,29.59,10,10,9,21,11,26,0.03,4,Rain,241
2014-1-12,56,43,29,36,32,26,92,68,43,30.08,29.96,29.84,10,10,10,20,9,27,0.00,0,,193
2014-1-13,58,48,38,49,41,31,89,66,43,29.89,29.79,29.72,10,10,10,21,9,31,0.00,4,,223
2014-1-14,56,42,27,37,29,21,96,67,38,30.08,29.94,29.83,10,10,10,23,7,28,T,1,Rain,249
2014-1-15,33,28,22,20,16,13,77,63,49,30.20,30.15,30.09,10,10,10,14,7,18,0.00,4,,278
2014-1-16,46,35,23,32,23,15,85,65,45,30.06,29.89,29.77,10,10,9,22,9,29,T,6,Rain-Snow,208
2014-1-17,37,26,15,27,13,5,80,63,46,30.17,30.03,29.83,10,9,2,23,10,33,T,6,Snow,291
2014-1-18,45,31,17,31,20,13,88,61,34,30.14,29.94,29.75,10,10,10,22,9,31,T,5,,221
2014-1-19,45,37,29,29,24,22,82,61,40,30.14,30.02,29.90,10,10,9,18,11,26,0.00,3,,257
2014-1-20,57,45,32,32,29,26,75,54,33,29.96,29.90,29.87,10,10,10,15,6,21,0.00,0,,275
2014-1-21,39,26,13,30,12,7,85,69,52,30.31,30.19,29.88,10,10,5,33,13,44,T,5,Snow,337
2014-1-22,32,23,14,16,12,7,84,66,47,30.26,30.18,30.08,10,10,10,20,6,26,0.00,6,,210
2014-1-23,23,14,4,15,-1,-5,86,61,35,30.78,30.63,30.27,10,10,10,24,11,31,0.00,0,,335
2014-1-24,29,16,2,4,1,-2,86,58,29,30.76,30.42,29.98,10,10,10,22,10,33,0.00,1,,212
2014-1-25,50,35,20,24,13,4,63,43,23,30.00,29.89,29.81,10,10,8,26,13,35,0.01,4,Snow,268
2014-1-26,62,41,20,34,25,7,67,52,36,29.96,29.75,29.63,10,10,10,25,13,33,0.00,1,,214
2014-1-27,46,30,14,25,-1,-6,61,47,33,30.49,30.31,29.89,10,10,10,32,16,45,0.00,2,,4
2014-1-28,20,12,3,0,-6,-11,83,54,25,30.54,30.47,30.41,10,10,10,20,7,24,0.00,1,,19
2014-1-29,31,17,2,5,1,-5,86,57,28,30.47,30.39,30.27,10,10,10,14,6,19,0.00,0,,208
2014-1-30,40,30,19,8,6,4,52,37,22,30.27,30.11,29.98,10,10,10,18,8,31,0.00,0,,188
2014-1-31,46,37,27,37,28,8,100,66,31,30.11,30.04,29.97,10,6,1,13,5,16,0.08,7,Rain,125